Time;durP1;ratioP1;P1;durP2;ratioP2;P2;SDS_P1;SDS_P2;PMS_P1;PMS_P2;Temp;Humidity;BMP_temperature;BMP_pressure;BME280_temperature;BME280_humidity;BME280_pressure;Samples;Min_cycle;Max_cycle;Signal;HPM_P1;HPM_P2
2023/12/31 00:01:27;;;;;;;6.28;3.70;;;8.10;99.90;;;;;;7357786;19;20022;-62
2023/12/31 00:03:53;;;;;;;8.20;3.58;;;8.00;99.90;;;;;;7365275;19;20505;-61
2023/12/31 00:06:19;;;;;;;6.43;4.10;;;8.00;99.90;;;;;;7357995;19;20022;-70
2023/12/31 00:08:47;;;;;;;5.75;3.30;;;8.00;99.90;;;;;;7363990;19;20045;-70
2023/12/31 00:11:13;;;;;;;7.40;3.40;;;7.90;99.90;;;;;;7360408;19;20026;-70
2023/12/31 00:13:39;;;;;;;5.13;3.28;;;7.90;99.90;;;;;;7368822;19;20030;-61
2023/12/31 00:16:05;;;;;;;6.47;3.60;;;7.90;99.90;;;;;;7365905;19;20022;-61
2023/12/31 00:18:32;;;;;;;6.60;3.38;;;7.90;99.90;;;;;;7367003;19;20029;-62
2023/12/31 00:21:18;;;;;;;5.43;3.50;;;7.90;99.90;;;;;;7364141;19;21085;-70
2023/12/31 00:23:44;;;;;;;5.30;3.20;;;7.90;99.90;;;;;;7365469;19;20652;-70
2023/12/31 00:26:13;;;;;;;8.15;3.33;;;7.80;99.90;;;;;;7365723;19;20101;-61
2023/12/31 00:28:40;;;;;;;6.78;3.50;;;7.90;99.90;;;;;;7366495;19;20455;-61
2023/12/31 00:31:06;;;;;;;4.68;3.08;;;7.80;99.90;;;;;;7361865;19;20022;-61
2023/12/31 00:33:32;;;;;;;4.38;2.80;;;7.80;99.90;;;;;;7363074;19;20014;-61
2023/12/31 00:36:00;;;;;;;6.38;3.33;;;7.80;99.90;;;;;;7357222;19;20015;-61
2023/12/31 00:38:27;;;;;;;6.05;3.53;;;7.90;99.90;;;;;;7367337;19;20037;-61
2023/12/31 00:40:54;;;;;;;4.38;3.00;;;8.00;99.90;;;;;;7363149;19;20071;-61
2023/12/31 00:43:20;;;;;;;6.45;2.80;;;8.10;99.90;;;;;;7366618;19;20409;-61
2023/12/31 00:45:46;;;;;;;5.00;3.10;;;8.10;99.90;;;;;;7363968;19;20034;-61
2023/12/31 00:48:32;;;;;;;4.55;3.08;;;8.10;99.90;;;;;;7361328;19;20364;-61
2023/12/31 00:51:01;;;;;;;6.90;2.90;;;8.20;99.90;;;;;;7359249;19;20417;-61
2023/12/31 00:53:27;;;;;;;5.85;3.22;;;8.20;99.90;;;;;;7362938;19;20026;-70
2023/12/31 00:55:54;;;;;;;4.18;2.60;;;8.20;99.90;;;;;;7358630;19;20122;-61
2023/12/31 00:58:20;;;;;;;6.38;2.83;;;8.20;99.90;;;;;;7364206;19;20066;-61
2023/12/31 01:00:47;;;;;;;5.75;3.30;;;8.20;99.90;;;;;;7367185;19;20086;-61
2023/12/31 01:03:13;;;;;;;5.25;2.67;;;8.20;99.90;;;;;;7359297;19;20014;-70
2023/12/31 01:05:40;;;;;;;4.53;2.75;;;8.20;99.90;;;;;;7366581;19;20490;-61
2023/12/31 01:08:07;;;;;;;4.32;2.78;;;8.20;99.90;;;;;;7359796;19;20490;-61
2023/12/31 01:10:34;;;;;;;5.95;2.80;;;8.10;99.90;;;;;;7364536;19;20086;-61
2023/12/31 01:13:01;;;;;;;3.95;2.25;;;8.10;99.90;;;;;;7353428;19;20615;-61
2023/12/31 01:15:27;;;;;;;4.97;2.78;;;8.10;99.90;;;;;;7365320;19;20432;-61
2023/12/31 01:17:53;;;;;;;4.60;2.70;;;8.00;99.90;;;;;;7365368;19;20026;-61
2023/12/31 01:20:19;;;;;;;3.92;2.58;;;8.10;99.90;;;;;;7362340;19;21186;-61
2023/12/31 01:22:46;;;;;;;4.47;2.05;;;8.10;99.90;;;;;;7365398;19;20035;-61
2023/12/31 01:25:12;;;;;;;5.18;2.80;;;8.10;99.90;;;;;;7361416;19;20019;-61
2023/12/31 01:27:39;;;;;;;4.20;2.40;;;8.10;99.90;;;;;;7365319;19;20031;-61
2023/12/31 01:30:06;;;;;;;4.05;2.45;;;8.10;99.90;;;;;;7359841;19;20018;-61
2023/12/31 01:32:32;;;;;;;4.15;3.13;;;8.10;99.90;;;;;;7359959;19;20022;-61
2023/12/31 01:35:00;;;;;;;5.38;2.88;;;8.10;99.90;;;;;;7361689;19;20018;-61
2023/12/31 01:37:26;;;;;;;4.88;2.60;;;8.10;99.90;;;;;;7364039;19;20018;-61
2023/12/31 01:39:52;;;;;;;6.40;3.08;;;8.10;99.90;;;;;;7360553;19;20046;-61
2023/12/31 01:42:18;;;;;;;7.25;2.90;;;8.10;99.90;;;;;;7357696;19;20692;-61
2023/12/31 01:44:45;;;;;;;3.95;2.63;;;8.00;99.90;;;;;;7366066;19;20753;-61
2023/12/31 01:47:12;;;;;;;5.18;2.90;;;8.00;99.90;;;;;;7366251;19;20022;-61
2023/12/31 01:49:39;;;;;;;5.25;2.85;;;8.00;99.90;;;;;;7363033;19;20018;-62
2023/12/31 01:52:05;;;;;;;5.95;3.40;;;8.00;99.90;;;;;;7364718;19;20388;-70
2023/12/31 01:54:32;;;;;;;7.07;3.13;;;8.00;99.90;;;;;;7358642;19;20021;-64
2023/12/31 01:56:58;;;;;;;8.10;3.38;;;8.00;99.90;;;;;;7364099;19;20018;-70
2023/12/31 01:59:25;;;;;;;5.97;3.17;;;8.00;99.90;;;;;;7366144;19;20067;-70
2023/12/31 02:01:52;;;;;;;6.05;3.35;;;8.00;99.90;;;;;;7361374;19;20041;-70
2023/12/31 02:04:19;;;;;;;4.57;2.92;;;8.00;99.90;;;;;;7363546;19;20023;-70
2023/12/31 02:06:46;;;;;;;6.63;3.20;;;8.00;99.90;;;;;;7360188;19;20453;-70
2023/12/31 02:09:12;;;;;;;4.40;2.83;;;8.00;99.90;;;;;;7365153;19;20493;-70
2023/12/31 02:11:39;;;;;;;5.30;3.05;;;8.00;99.90;;;;;;7363136;19;20014;-70
2023/12/31 02:14:06;;;;;;;5.93;3.10;;;8.10;99.90;;;;;;7363522;19;20026;-70
2023/12/31 02:16:32;;;;;;;5.57;2.83;;;8.10;99.90;;;;;;7370292;19;20014;-70
2023/12/31 02:18:58;;;;;;;5.28;2.83;;;8.10;99.90;;;;;;7366488;19;20022;-62
2023/12/31 02:21:26;;;;;;;5.07;2.97;;;8.10;99.90;;;;;;7363732;19;20051;-61
2023/12/31 02:23:53;;;;;;;4.25;2.67;;;8.20;99.90;;;;;;7364619;19;20025;-61
2023/12/31 02:26:19;;;;;;;4.10;2.58;;;8.20;99.90;;;;;;7367726;19;20018;-62
2023/12/31 02:28:46;;;;;;;3.42;2.10;;;8.20;99.90;;;;;;7364182;19;20018;-61
2023/12/31 02:31:12;;;;;;;7.55;2.45;;;8.30;99.90;;;;;;7361229;19;20026;-61
2023/12/31 02:33:38;;;;;;;4.55;2.22;;;8.30;99.90;;;;;;7367093;19;20025;-62
2023/12/31 02:36:05;;;;;;;5.65;2.28;;;8.30;99.90;;;;;;7365169;19;20018;-61
2023/12/31 02:38:31;;;;;;;2.97;2.10;;;8.40;99.90;;;;;;7361237;19;20473;-61
2023/12/31 02:40:58;;;;;;;4.25;2.45;;;8.30;99.90;;;;;;7358819;19;20045;-69
2023/12/31 02:43:44;;;;;;;3.97;2.40;;;8.30;99.90;;;;;;7366765;19;20019;-70
2023/12/31 02:46:11;;;;;;;4.43;2.60;;;8.40;99.90;;;;;;7359709;19;20019;-70
2023/12/31 02:49:00;;;;;;;3.90;2.33;;;8.40;99.90;;;;;;7363421;19;20027;-70
2023/12/31 02:51:26;;;;;;;3.90;2.03;;;8.40;99.90;;;;;;7368155;19;20014;-61
2023/12/31 02:54:12;;;;;;;5.13;2.33;;;8.50;99.90;;;;;;7357529;19;20482;-71
2023/12/31 02:56:40;;;;;;;3.03;2.05;;;8.50;99.90;;;;;;7367873;19;20048;-70
2023/12/31 02:59:07;;;;;;;4.68;2.53;;;8.40;99.90;;;;;;7360572;19;20038;-70
2023/12/31 03:01:33;;;;;;;6.82;2.00;;;8.40;99.90;;;;;;7365748;19;20022;-70
2023/12/31 03:03:59;;;;;;;4.22;2.28;;;8.40;99.90;;;;;;7361270;19;20018;-70
2023/12/31 03:06:28;;;;;;;3.50;2.00;;;8.40;99.90;;;;;;7368097;19;20041;-70
2023/12/31 03:09:16;;;;;;;2.92;2.00;;;8.40;99.90;;;;;;7367935;19;20023;-70
2023/12/31 03:11:44;;;;;;;5.35;2.30;;;8.40;99.90;;;;;;7365346;19;20380;-61
2023/12/31 03:14:10;;;;;;;3.53;2.08;;;8.40;99.90;;;;;;7368310;19;20730;-61
2023/12/31 03:16:36;;;;;;;3.25;2.15;;;8.40;99.90;;;;;;7373896;19;20847;-61
2023/12/31 03:19:03;;;;;;;4.57;2.13;;;8.40;99.90;;;;;;7374440;19;20022;-61
2023/12/31 03:21:29;;;;;;;3.60;2.15;;;8.30;99.90;;;;;;7369122;19;20023;-61
2023/12/31 03:23:56;;;;;;;3.65;1.98;;;8.40;99.90;;;;;;7375764;19;20022;-62
2023/12/31 03:26:23;;;;;;;4.43;1.80;;;8.40;99.90;;;;;;7368988;19;20023;-61
2023/12/31 03:28:49;;;;;;;3.85;1.83;;;8.40;99.90;;;;;;7364863;19;20023;-61
2023/12/31 03:31:16;;;;;;;2.45;1.73;;;8.40;99.90;;;;;;7361169;19;20023;-70
2023/12/31 03:34:06;;;;;;;3.47;1.83;;;8.40;99.90;;;;;;7364582;19;20596;-70
2023/12/31 03:36:34;;;;;;;2.25;1.52;;;8.30;99.90;;;;;;7367746;19;20053;-70
2023/12/31 03:39:00;;;;;;;4.95;2.85;;;8.30;99.90;;;;;;7369785;19;20022;-70
2023/12/31 03:41:27;;;;;;;5.70;2.10;;;8.20;99.90;;;;;;7368727;19;20078;-70
2023/12/31 03:43:53;;;;;;;3.15;2.10;;;8.20;99.90;;;;;;7367487;19;20709;-69
2023/12/31 03:46:20;;;;;;;3.50;2.20;;;8.10;99.90;;;;;;7367782;19;20018;-70
2023/12/31 03:48:46;;;;;;;3.15;1.83;;;8.00;99.90;;;;;;7375001;19;20010;-70
2023/12/31 03:51:13;;;;;;;2.78;1.90;;;8.00;99.90;;;;;;7369552;19;20014;-70
2023/12/31 03:53:41;;;;;;;3.00;2.00;;;7.90;99.90;;;;;;7367778;19;20449;-71
2023/12/31 03:56:14;;;;;;;2.97;2.33;;;7.90;99.90;;;;;;7368478;19;20043;-70
2023/12/31 03:58:40;;;;;;;3.80;2.20;;;7.90;99.90;;;;;;7367828;19;20014;-70
2023/12/31 04:01:07;;;;;;;4.75;2.05;;;7.80;99.90;;;;;;7369114;19;20666;-70
2023/12/31 04:03:34;;;;;;;4.18;2.40;;;7.80;99.90;;;;;;7363458;19;20045;-70
2023/12/31 04:06:00;;;;;;;4.25;2.40;;;7.80;99.90;;;;;;7372293;19;20019;-70
2023/12/31 04:08:26;;;;;;;5.07;2.70;;;7.80;99.90;;;;;;7363348;19;20023;-70
2023/12/31 04:10:52;;;;;;;4.57;2.50;;;7.80;99.90;;;;;;7370991;19;20014;-70
2023/12/31 04:13:20;;;;;;;4.95;2.70;;;7.80;99.90;;;;;;7362232;19;20027;-70
2023/12/31 04:15:46;;;;;;;4.50;2.90;;;7.80;99.90;;;;;;7371143;19;20030;-62
2023/12/31 04:18:13;;;;;;;6.10;2.50;;;7.80;99.90;;;;;;7363224;19;20018;-61
2023/12/31 04:20:39;;;;;;;4.63;2.55;;;7.80;99.90;;;;;;7366826;19;20735;-61
2023/12/31 04:23:05;;;;;;;5.25;2.92;;;7.80;99.90;;;;;;7362609;19;20037;-61
2023/12/31 04:25:31;;;;;;;5.03;2.80;;;7.80;99.90;;;;;;7360684;19;20035;-61
2023/12/31 04:27:59;;;;;;;5.00;2.63;;;7.80;99.90;;;;;;7365536;19;20034;-61
2023/12/31 04:30:26;;;;;;;5.35;2.58;;;7.80;99.90;;;;;;7365056;19;20058;-61
2023/12/31 04:32:53;;;;;;;3.63;2.50;;;7.80;99.90;;;;;;7368900;19;20420;-61
2023/12/31 04:35:19;;;;;;;4.80;2.60;;;7.70;99.90;;;;;;7360736;19;20037;-70
2023/12/31 04:37:46;;;;;;;3.95;2.78;;;7.80;99.90;;;;;;7367703;19;20018;-70
2023/12/31 04:40:12;;;;;;;4.90;2.85;;;7.80;99.90;;;;;;7365946;19;20921;-70
2023/12/31 04:42:39;;;;;;;3.95;2.88;;;7.80;99.90;;;;;;7362802;19;20045;-70
2023/12/31 04:45:09;;;;;;;4.35;2.85;;;7.80;99.90;;;;;;7366598;19;20101;-70
2023/12/31 04:47:36;;;;;;;4.60;2.63;;;7.80;99.90;;;;;;7360657;19;20026;-70
2023/12/31 04:50:05;;;;;;;4.05;2.88;;;7.80;99.90;;;;;;7364625;19;20023;-70
2023/12/31 04:52:52;;;;;;;5.07;2.97;;;7.80;99.90;;;;;;7366135;19;20606;-70
2023/12/31 04:55:19;;;;;;;6.00;3.17;;;7.80;99.90;;;;;;7363479;19;20588;-70
2023/12/31 04:57:45;;;;;;;4.15;2.78;;;7.80;99.90;;;;;;7364447;19;20014;-62
2023/12/31 05:00:32;;;;;;;5.30;2.85;;;7.90;99.90;;;;;;7364361;19;20039;-61
2023/12/31 05:02:58;;;;;;;5.53;2.65;;;7.80;99.90;;;;;;7360991;19;20026;-61
2023/12/31 05:05:27;;;;;;;5.15;2.97;;;7.80;99.90;;;;;;7366125;19;20592;-62
2023/12/31 05:07:54;;;;;;;5.00;2.92;;;7.80;99.90;;;;;;7364874;19;20022;-61
2023/12/31 05:10:20;;;;;;;4.50;3.00;;;7.80;99.90;;;;;;7366274;19;21761;-61
2023/12/31 05:12:46;;;;;;;4.88;3.47;;;7.80;99.90;;;;;;7369057;19;20033;-61
2023/12/31 05:15:14;;;;;;;5.60;2.75;;;7.80;99.90;;;;;;7363454;19;21158;-61
2023/12/31 05:17:40;;;;;;;5.05;3.13;;;7.90;99.90;;;;;;7366326;19;20808;-62
2023/12/31 05:20:07;;;;;;;4.78;2.95;;;7.90;99.90;;;;;;7365380;19;20025;-61
2023/12/31 05:22:34;;;;;;;5.47;2.95;;;7.90;99.90;;;;;;7361691;19;20042;-61
2023/12/31 05:25:00;;;;;;;3.78;2.75;;;7.90;99.90;;;;;;7365166;19;20015;-61
2023/12/31 05:27:29;;;;;;;4.22;3.17;;;7.90;99.90;;;;;;7365231;19;20191;-61
2023/12/31 05:29:56;;;;;;;4.68;2.85;;;8.00;99.90;;;;;;7362957;19;20025;-61
2023/12/31 05:32:22;;;;;;;6.70;3.08;;;7.90;99.90;;;;;;7364777;19;20485;-61
2023/12/31 05:35:09;;;;;;;7.47;2.97;;;7.90;99.90;;;;;;7358045;19;20015;-61
2023/12/31 05:37:35;;;;;;;6.32;2.95;;;7.90;99.90;;;;;;7364706;19;20599;-61
2023/12/31 05:40:01;;;;;;;5.20;3.35;;;7.90;99.90;;;;;;7365829;19;20829;-61
2023/12/31 05:42:28;;;;;;;4.93;2.90;;;7.90;99.90;;;;;;7363984;19;20014;-61
2023/12/31 05:44:54;;;;;;;6.85;3.28;;;7.90;99.90;;;;;;7359958;19;20032;-62
2023/12/31 05:47:20;;;;;;;6.00;3.28;;;8.00;99.90;;;;;;7363499;19;20657;-62
2023/12/31 05:49:50;;;;;;;6.00;3.28;;;7.90;99.90;;;;;;7361199;19;20032;-61
2023/12/31 05:52:16;;;;;;;4.95;2.78;;;8.00;99.90;;;;;;7365601;19;20018;-61
2023/12/31 05:54:42;;;;;;;3.45;2.17;;;8.00;99.90;;;;;;7360336;19;20338;-61
2023/12/31 05:57:08;;;;;;;3.72;2.50;;;8.00;99.90;;;;;;7363952;19;20022;-61
2023/12/31 05:59:35;;;;;;;5.28;3.00;;;8.00;99.90;;;;;;7357465;19;20030;-61
2023/12/31 06:02:01;;;;;;;4.88;3.15;;;8.00;99.90;;;;;;7365396;19;20780;-61
2023/12/31 06:04:27;;;;;;;4.10;3.05;;;8.10;99.90;;;;;;7361769;19;20835;-61
2023/12/31 06:06:55;;;;;;;7.70;3.45;;;8.00;99.90;;;;;;7360464;19;20098;-61
2023/12/31 06:09:21;;;;;;;4.13;2.90;;;8.00;99.90;;;;;;7364640;19;20037;-61
2023/12/31 06:11:47;;;;;;;5.78;3.38;;;8.00;99.90;;;;;;7362728;19;20026;-61
2023/12/31 06:14:14;;;;;;;6.18;3.00;;;8.00;99.90;;;;;;7363102;19;20500;-70
2023/12/31 06:16:41;;;;;;;5.38;3.65;;;8.00;99.90;;;;;;7358773;19;20073;-70
2023/12/31 06:19:07;;;;;;;4.55;3.00;;;8.00;99.90;;;;;;7361246;19;20041;-70
2023/12/31 06:21:34;;;;;;;5.43;2.83;;;8.00;99.90;;;;;;7362704;19;20030;-70
2023/12/31 06:24:00;;;;;;;4.90;3.13;;;8.10;99.90;;;;;;7356986;19;20595;-62
2023/12/31 06:26:27;;;;;;;5.35;3.13;;;8.10;99.90;;;;;;7360473;19;20024;-70
2023/12/31 06:28:54;;;;;;;4.35;3.25;;;8.10;99.90;;;;;;7359563;19;20019;-70
2023/12/31 06:31:20;;;;;;;5.53;3.45;;;8.10;99.90;;;;;;7363488;19;20709;-70
2023/12/31 06:33:46;;;;;;;6.43;3.38;;;8.10;99.90;;;;;;7363288;19;20022;-70
2023/12/31 06:36:12;;;;;;;8.07;3.33;;;8.10;99.90;;;;;;7364137;19;20022;-61
2023/12/31 06:38:40;;;;;;;4.72;3.33;;;8.10;99.90;;;;;;7362955;19;20488;-70
2023/12/31 06:41:10;;;;;;;5.22;3.28;;;8.10;99.90;;;;;;7366983;19;20017;-70
2023/12/31 06:43:57;;;;;;;5.72;3.38;;;8.10;99.90;;;;;;7361954;19;20011;-71
2023/12/31 06:46:23;;;;;;;7.60;3.60;;;8.10;99.90;;;;;;7364280;19;20754;-70
2023/12/31 06:48:50;;;;;;;6.28;3.00;;;8.20;99.90;;;;;;7368594;19;20655;-70
2023/12/31 06:51:16;;;;;;;5.88;3.35;;;8.10;99.90;;;;;;7365367;19;20033;-70
2023/12/31 06:53:42;;;;;;;4.38;3.03;;;8.20;99.90;;;;;;7366778;19;20028;-70
2023/12/31 06:56:08;;;;;;;5.72;3.40;;;8.20;99.90;;;;;;7369847;19;20119;-69
2023/12/31 06:58:36;;;;;;;3.45;2.83;;;8.20;99.90;;;;;;7365840;19;20015;-70
2023/12/31 07:01:05;;;;;;;5.22;3.40;;;8.20;99.90;;;;;;7367087;19;20044;-70
2023/12/31 07:03:32;;;;;;;5.03;2.80;;;8.20;99.90;;;;;;7368034;19;20035;-70
2023/12/31 07:05:58;;;;;;;6.28;3.40;;;8.20;99.90;;;;;;7369789;19;20035;-61
2023/12/31 07:08:24;;;;;;;5.35;3.25;;;8.30;99.90;;;;;;7364000;19;20039;-70
2023/12/31 07:10:52;;;;;;;4.00;2.47;;;8.20;99.90;;;;;;7366324;19;20048;-64
2023/12/31 07:13:20;;;;;;;5.28;3.28;;;8.20;99.90;;;;;;7362326;19;20038;-61
2023/12/31 07:15:47;;;;;;;4.68;3.13;;;8.20;99.90;;;;;;7373498;19;20074;-66
2023/12/31 07:18:16;;;;;;;5.15;3.50;;;8.30;99.90;;;;;;7364962;19;20032;-69
2023/12/31 07:20:42;;;;;;;3.83;2.67;;;8.30;99.90;;;;;;7366491;19;20082;-69
2023/12/31 07:23:08;;;;;;;4.32;3.03;;;8.30;99.90;;;;;;7363402;19;20018;-69
2023/12/31 07:25:36;;;;;;;6.97;3.05;;;8.30;99.90;;;;;;7370436;19;20762;-69
2023/12/31 07:28:02;;;;;;;5.05;3.60;;;8.30;99.90;;;;;;7362083;19;20062;-69
2023/12/31 07:30:28;;;;;;;5.93;3.00;;;8.40;99.90;;;;;;7370904;19;20494;-69
2023/12/31 07:32:55;;;;;;;5.05;3.70;;;8.40;99.90;;;;;;7366907;19;20056;-61
2023/12/31 07:35:21;;;;;;;6.45;3.10;;;8.40;99.90;;;;;;7364749;19;20408;-62
2023/12/31 07:37:47;;;;;;;6.43;3.22;;;8.40;99.90;;;;;;7362627;19;20888;-62
2023/12/31 07:40:14;;;;;;;5.07;3.58;;;8.50;99.90;;;;;;7366762;19;20023;-62
2023/12/31 07:42:40;;;;;;;4.35;3.10;;;8.50;99.90;;;;;;7368044;19;20034;-61
2023/12/31 07:45:07;;;;;;;4.57;3.50;;;8.50;99.90;;;;;;7364135;19;20474;-61
2023/12/31 07:47:35;;;;;;;5.95;3.22;;;8.50;99.90;;;;;;7366063;19;20055;-69
2023/12/31 07:50:21;;;;;;;4.53;3.40;;;8.60;99.90;;;;;;7367879;19;20867;-69
2023/12/31 07:52:47;;;;;;;5.97;3.20;;;8.50;99.90;;;;;;7372037;19;20011;-69
2023/12/31 07:55:13;;;;;;;3.90;2.58;;;8.60;99.90;;;;;;7373755;19;20340;-62
2023/12/31 07:57:40;;;;;;;3.67;2.67;;;8.70;99.90;;;;;;7374351;19;20026;-61
2023/12/31 08:00:08;;;;;;;4.72;2.90;;;8.70;99.90;;;;;;7373950;19;20014;-69
2023/12/31 08:02:40;;;;;;;5.28;3.13;;;8.60;99.90;;;;;;7373571;19;20014;-61
2023/12/31 08:05:07;;;;;;;4.63;2.97;;;8.60;99.90;;;;;;7374438;19;21006;-69
2023/12/31 08:07:33;;;;;;;6.18;3.15;;;8.60;99.90;;;;;;7369381;19;20061;-68
2023/12/31 08:09:59;;;;;;;4.78;3.20;;;8.60;99.90;;;;;;7374848;19;20671;-69
2023/12/31 08:12:26;;;;;;;3.53;2.50;;;8.60;99.90;;;;;;7372374;19;20025;-69
2023/12/31 08:14:52;;;;;;;5.10;3.45;;;8.60;99.90;;;;;;7371872;19;20026;-69
2023/12/31 08:17:18;;;;;;;5.30;3.00;;;8.50;99.90;;;;;;7371777;19;20033;-61
2023/12/31 08:19:45;;;;;;;5.55;3.58;;;8.50;99.90;;;;;;7373544;19;20014;-61
2023/12/31 08:22:12;;;;;;;4.20;3.08;;;8.50;99.90;;;;;;7373740;19;20019;-61
2023/12/31 08:24:38;;;;;;;7.38;3.38;;;8.50;99.90;;;;;;7372636;19;20022;-61
2023/12/31 08:27:04;;;;;;;5.53;3.50;;;8.50;99.90;;;;;;7371219;19;20025;-61
2023/12/31 08:29:31;;;;;;;5.70;3.22;;;8.60;99.90;;;;;;7374367;19;20022;-61
2023/12/31 08:31:57;;;;;;;4.85;3.20;;;8.60;99.90;;;;;;7371971;19;20027;-60
2023/12/31 08:34:23;;;;;;;4.68;3.05;;;8.60;99.90;;;;;;7365126;19;20018;-60
2023/12/31 08:36:49;;;;;;;4.20;2.92;;;8.70;99.90;;;;;;7339305;19;20585;-61
2023/12/31 08:39:16;;;;;;;5.38;3.00;;;8.70;99.90;;;;;;7366577;19;20481;-69
2023/12/31 08:41:43;;;;;;;16.17;11.52;;;8.70;99.90;;;;;;7358805;19;20847;-65
2023/12/31 08:44:10;;;;;;;6.10;3.53;;;8.80;99.90;;;;;;7363157;19;20381;-68
2023/12/31 08:46:36;;;;;;;5.88;3.17;;;8.80;99.90;;;;;;7363195;19;20018;-69
2023/12/31 08:49:02;;;;;;;5.97;3.45;;;8.90;99.90;;;;;;7364241;19;20022;-68
2023/12/31 08:51:29;;;;;;;4.30;2.90;;;8.90;99.90;;;;;;7365716;19;20022;-62
2023/12/31 08:53:58;;;;;;;9.20;6.35;;;9.00;99.90;;;;;;7344853;19;20646;-62
2023/12/31 08:56:24;;;;;;;5.03;2.78;;;9.00;99.90;;;;;;7356546;19;20014;-61
2023/12/31 08:58:51;;;;;;;4.53;2.83;;;9.00;99.90;;;;;;7365598;19;20026;-69
2023/12/31 09:01:18;;;;;;;4.55;3.30;;;8.90;99.90;;;;;;7365470;19;20031;-69
2023/12/31 09:03:44;;;;;;;5.70;2.72;;;9.00;99.90;;;;;;7367800;19;20018;-69
2023/12/31 09:06:11;;;;;;;4.03;2.60;;;9.00;99.90;;;;;;7366908;19;20018;-69
2023/12/31 09:08:38;;;;;;;5.45;2.85;;;8.90;99.90;;;;;;7366471;19;20015;-61
2023/12/31 09:11:04;;;;;;;5.20;3.03;;;8.90;99.90;;;;;;7364008;19;20047;-62
2023/12/31 09:13:30;;;;;;;4.60;3.03;;;9.00;99.90;;;;;;7366834;19;20494;-63
2023/12/31 09:15:56;;;;;;;4.50;2.72;;;9.00;99.90;;;;;;7371047;19;20090;-63
2023/12/31 09:18:27;;;;;;;5.20;3.95;;;8.90;99.90;;;;;;7374715;19;20019;-64
2023/12/31 09:20:54;;;;;;;5.13;2.60;;;9.00;99.90;;;;;;7373012;19;20066;-64
2023/12/31 09:23:21;;;;;;;3.75;2.60;;;8.90;99.90;;;;;;7367660;19;20386;-62
2023/12/31 09:25:47;;;;;;;5.07;3.10;;;9.00;99.90;;;;;;7372563;19;20022;-63
2023/12/31 09:28:13;;;;;;;3.95;3.10;;;9.00;99.90;;;;;;7365955;19;20493;-62
2023/12/31 09:30:39;;;;;;;6.43;3.00;;;9.00;99.90;;;;;;7369405;19;20018;-60
2023/12/31 09:33:26;;;;;;;3.85;2.80;;;9.10;99.90;;;;;;7365331;19;20090;-63
2023/12/31 09:35:52;;;;;;;5.60;3.28;;;9.10;99.90;;;;;;7319027;19;20015;-61
2023/12/31 09:38:18;;;;;;;6.15;3.17;;;9.20;99.90;;;;;;7351088;19;20042;-62
2023/12/31 09:40:45;;;;;;;4.32;2.85;;;9.20;99.90;;;;;;7361009;19;20097;-62
2023/12/31 09:43:17;;;;;;;4.53;2.90;;;9.20;99.90;;;;;;7361590;19;20018;-61
2023/12/31 09:45:44;;;;;;;3.60;2.58;;;9.20;99.90;;;;;;7367122;19;20082;-62
2023/12/31 09:48:13;;;;;;;4.93;3.25;;;9.30;99.90;;;;;;7370081;19;20022;-61
2023/12/31 09:50:39;;;;;;;9.77;5.55;;;9.30;99.90;;;;;;7371106;19;20934;-66
2023/12/31 09:53:07;;;;;;;28.50;22.65;;;9.30;99.90;;;;;;7366559;19;20026;-66
2023/12/31 09:55:34;;;;;;;24.90;15.32;;;9.40;99.90;;;;;;7370887;19;20078;-60
2023/12/31 09:58:03;;;;;;;16.85;11.27;;;9.40;99.90;;;;;;7371447;19;20014;-60
2023/12/31 10:00:29;;;;;;;11.27;8.10;;;9.50;99.90;;;;;;7372720;19;20022;-59
2023/12/31 10:02:55;;;;;;;14.02;11.93;;;9.60;99.90;;;;;;7376391;19;20019;-59
2023/12/31 10:05:23;;;;;;;10.57;7.50;;;9.70;99.90;;;;;;7372010;19;20022;-61
2023/12/31 10:07:50;;;;;;;9.52;7.10;;;9.70;99.90;;;;;;7373404;19;20031;-59
2023/12/31 10:10:18;;;;;;;6.07;3.72;;;9.80;99.90;;;;;;7374382;19;20600;-58
2023/12/31 10:12:44;;;;;;;12.60;8.70;;;9.80;99.90;;;;;;7373969;19;20617;-65
2023/12/31 10:15:12;;;;;;;16.27;12.63;;;9.90;99.90;;;;;;7377453;19;20482;-65
2023/12/31 10:17:39;;;;;;;10.60;7.20;;;9.90;99.90;;;;;;7374115;19;20026;-60
2023/12/31 10:20:07;;;;;;;23.08;17.05;;;10.00;99.90;;;;;;7378234;19;20035;-64
2023/12/31 10:22:36;;;;;;;25.17;19.30;;;10.00;99.90;;;;;;7373007;19;20650;-60
2023/12/31 10:25:24;;;;;;;13.00;8.88;;;10.00;99.90;;;;;;7373578;19;20018;-59
2023/12/31 10:27:50;;;;;;;28.17;21.63;;;10.00;99.90;;;;;;7379807;19;20023;-64
2023/12/31 10:30:17;;;;;;;9.35;6.25;;;10.10;99.90;;;;;;7378449;19;20841;-65
2023/12/31 10:32:43;;;;;;;9.50;6.90;;;10.10;99.90;;;;;;7375761;19;20503;-65
2023/12/31 10:35:10;;;;;;;8.80;4.20;;;10.10;99.90;;;;;;7377794;19;20019;-65
2023/12/31 10:37:36;;;;;;;9.13;5.80;;;10.10;99.90;;;;;;7372830;19;20050;-65
2023/12/31 10:40:22;;;;;;;10.23;5.97;;;10.10;99.90;;;;;;7379820;19;20098;-65
2023/12/31 10:42:51;;;;;;;9.90;7.70;;;10.20;99.90;;;;;;7371134;19;20017;-64
2023/12/31 10:45:19;;;;;;;6.03;4.22;;;10.20;99.90;;;;;;7371365;19;20074;-67
2023/12/31 10:47:50;;;;;;;7.88;5.03;;;10.20;99.90;;;;;;7374430;19;20031;-60
2023/12/31 10:50:24;;;;;;;6.67;4.50;;;10.20;99.90;;;;;;7374207;19;20042;-60
2023/12/31 10:52:53;;;;;;;5.25;3.33;;;10.20;99.90;;;;;;7371761;19;20015;-60
2023/12/31 10:55:20;;;;;;;4.78;3.00;;;10.20;99.90;;;;;;7362642;19;20018;-67
2023/12/31 10:57:47;;;;;;;5.63;4.18;;;10.30;99.90;;;;;;7370108;19;20026;-67
2023/12/31 11:00:15;;;;;;;6.13;3.60;;;10.30;99.90;;;;;;7368743;19;20019;-60
2023/12/31 11:02:45;;;;;;;6.47;4.80;;;10.30;99.90;;;;;;7365749;19;20039;-60
2023/12/31 11:05:14;;;;;;;10.20;7.68;;;10.30;99.90;;;;;;7365813;19;20023;-60
2023/12/31 11:07:40;;;;;;;58.63;45.00;;;10.40;99.90;;;;;;7368772;19;20022;-60
2023/12/31 11:10:28;;;;;;;18.70;13.20;;;10.30;99.90;;;;;;7369637;19;20033;-60
2023/12/31 11:12:55;;;;;;;13.30;11.10;;;10.20;99.90;;;;;;7372453;19;20093;-65
2023/12/31 11:15:23;;;;;;;18.30;14.10;;;10.30;99.90;;;;;;7372371;19;20034;-59
2023/12/31 11:18:08;;;;;;;15.02;13.40;;;10.30;99.90;;;;;;7372243;19;21657;-60
2023/12/31 11:20:40;;;;;;;10.18;7.35;;;10.20;99.90;;;;;;7369090;19;20564;-60
2023/12/31 11:23:23;;;;;;;7.07;4.40;;;10.10;99.90;;;;;;7368544;19;20014;-60
2023/12/31 11:25:50;;;;;;;;;;;10.10;99.90;;;;;;7370103;19;20060;-60
2023/12/31 11:28:17;;;;;;;9.98;5.35;;;10.00;99.90;;;;;;7375799;19;19986;-60
2023/12/31 11:30:54;;;;;;;4.57;2.72;;;10.00;99.90;;;;;;7374190;19;20070;-60
2023/12/31 11:33:34;;;;;;;7.57;4.38;;;9.90;99.90;;;;;;7376061;19;20018;-60
2023/12/31 11:36:15;;;;;;;8.70;5.63;;;9.80;99.90;;;;;;7375198;19;20029;-61
2023/12/31 11:38:53;;;;;;;13.13;9.67;;;9.80;99.90;;;;;;7381527;19;20031;-60
2023/12/31 11:41:24;;;;;;;10.40;6.32;;;9.60;99.90;;;;;;7375617;19;20614;-67
2023/12/31 11:43:51;;;;;;;8.13;2.67;;;9.40;99.90;;;;;;7374904;19;20022;-66
2023/12/31 11:46:46;;;;;;;2.00;1.27;;;8.40;99.90;;;;;;7374875;19;20019;-65
2023/12/31 11:49:13;;;;;;;3.10;1.40;;;7.80;99.90;;;;;;7376152;19;20021;-60
2023/12/31 11:52:04;;;;;;;3.55;2.00;;;7.70;99.90;;;;;;7376016;19;20097;-60
2023/12/31 11:54:37;;;;;;;6.20;3.17;;;7.70;99.90;;;;;;7378591;19;20387;-59
2023/12/31 11:57:04;;;;;;;7.45;3.50;;;7.70;99.90;;;;;;7374892;19;20282;-60
2023/12/31 11:59:38;;;;;;;5.95;3.55;;;7.80;99.90;;;;;;7380075;19;20039;-60
2023/12/31 12:02:06;;;;;;;5.10;2.60;;;7.80;99.90;;;;;;7378312;19;20018;-60
2023/12/31 12:04:33;;;;;;;3.85;2.00;;;7.80;99.90;;;;;;7374741;19;20026;-65
2023/12/31 12:07:00;;;;;;;6.78;1.80;;;7.90;99.90;;;;;;7375150;19;20014;-60
2023/12/31 12:09:29;;;;;;;50.75;34.25;;;7.70;99.90;;;;;;7379091;19;20015;-60
2023/12/31 12:12:00;;;;;;;12.25;6.72;;;7.70;99.90;;;;;;7376784;19;20026;-66
2023/12/31 12:14:27;;;;;;;6.65;2.75;;;7.60;99.90;;;;;;7373512;19;20052;-66
2023/12/31 12:16:54;;;;;;;11.35;7.35;;;7.60;99.90;;;;;;7374919;19;20718;-66
2023/12/31 12:19:25;;;;;;;5.57;3.28;;;7.60;99.90;;;;;;7375418;19;20014;-61
2023/12/31 12:21:52;;;;;;;7.03;3.42;;;8.20;99.90;;;;;;7376775;19;20010;-61
2023/12/31 12:24:19;;;;;;;5.50;3.08;;;8.40;99.90;;;;;;7378089;19;20032;-61
2023/12/31 12:26:49;;;;;;;5.45;2.00;;;8.70;99.90;;;;;;7378615;19;20426;-61
2023/12/31 12:29:16;;;;;;;3.85;1.30;;;9.50;99.90;;;;;;7376886;19;20294;-61
2023/12/31 12:31:46;;;;;;;3.65;2.13;;;9.20;99.90;;;;;;7379732;19;20472;-61
2023/12/31 12:34:16;;;;;;;4.80;1.95;;;9.00;99.90;;;;;;7373308;19;20129;-61
2023/12/31 12:36:42;;;;;;;5.35;2.63;;;8.70;99.90;;;;;;7376222;19;20026;-61
2023/12/31 12:39:16;;;;;;;4.10;2.55;;;8.50;99.90;;;;;;7372761;19;20757;-60
2023/12/31 12:41:50;;;;;;;3.35;2.10;;;8.30;99.90;;;;;;7376524;19;20563;-61
2023/12/31 12:44:17;;;;;;;3.58;1.95;;;8.30;99.90;;;;;;7371116;19;20034;-63
2023/12/31 12:46:46;;;;;;;3.28;2.05;;;8.10;99.90;;;;;;7370709;19;20035;-65
2023/12/31 12:49:13;;;;;;;5.75;2.40;;;8.10;99.90;;;;;;7370429;19;20411;-68
2023/12/31 12:51:40;;;;;;;3.35;2.10;;;8.00;99.90;;;;;;7375602;19;20811;-69
2023/12/31 12:54:08;;;;;;;4.50;2.17;;;8.10;99.90;;;;;;7372799;19;20018;-63
2023/12/31 12:56:34;;;;;;;4.35;2.60;;;8.00;99.90;;;;;;7373171;19;20497;-63
2023/12/31 12:59:03;;;;;;;6.10;2.47;;;8.10;99.90;;;;;;7376118;19;20015;-67
2023/12/31 13:01:30;;;;;;;4.85;2.55;;;8.20;99.90;;;;;;7377296;19;20034;-68